logo
Search for airport 
image banner adimage banner adimage banner ad
image banner ad

YEXM - Exmouth

Located in Exmouth, Australia

ICAO - YEXM, IATA - EXM

Data provided by Airmate  

General information

Coordinates: S22°2'27" E114°6'9"
Elevation is 10 feet MSL.
Magnetic variation is 0° East
View others Airports in Western Australia

Operational data

Special qualification required
Current time UTC:
Current local time:
Weather at : YPLM - Learmonth ( 22 km )
METAR: YPLM 130330Z AUTO 04009KT 9999 // NCD 25/19 Q1015 RF00.0/000.0
TAF: TAF YPLM 122306Z 1300/1400 23007KT CAVOK FM130600 05009KT CAVOK FM130900 35008KT CAVOK FM131200 22005KT CAVOK FM131800 18005KT CAVOK
View NOTAMs / SUP AIP / TFR affecting this airport [VIEW]
Communications frequencies: [VIEW]

Runways:

RWY identifierQFULength (ft)Width (ft)SurfaceLDA (ft)
02413498X
20413498X

Airport contact information

Address: Exmouth Australia

Satellite view of YEXM